Governor's Harbour, The Bahamas
Current Conditions -  °F | °C
As of 7:15 AM on Friday 24 Oct 2014 (Local Time) from MYNN Reporting Station
Heavy Rain Heavy Rain  
Wind Chill: 75°   Ceiling: 4000
Heat Index: 75°   Visibility: 1mi
Dew Point: 72°   Wind: 8mph
Humidity: 89%   Direction: 110°ESE
Pressure: 29.85"   Gusts: NA
Location:  25.17°N, 76.23°W
Report Text: MYNN 241115Z 11007KT 1600 +RA FEW014 BKN040 OVC08024/22 A2985
Loading
Personal Weather Stations






























Interactive Weather Map
Tropical Storm Tracking
New forecast layout! Learn more

10-Day Weather Forecast

Advertisements
Track Severe Weather on mobile